createdAt,value
2023-01-21T00:01:10.773Z,49.50
2023-01-21T00:03:38.228Z,51.10
2023-01-21T00:06:08.493Z,44.00
2023-01-21T00:08:35.855Z,43.20
2023-01-21T00:11:15.657Z,44.00
2023-01-21T00:13:44.135Z,41.70
2023-01-21T00:16:12.033Z,41.30
2023-01-21T00:18:38.985Z,47.60
2023-01-21T00:21:06.200Z,41.20
2023-01-21T00:23:33.185Z,41.10
2023-01-21T00:26:01.698Z,44.70
2023-01-21T00:28:30.569Z,42.20
2023-01-21T00:31:03.231Z,41.90
2023-01-21T00:33:31.029Z,49.90
2023-01-21T00:36:04.757Z,48.30
2023-01-21T00:38:32.328Z,44.50
2023-01-21T00:41:04.101Z,44.60
2023-01-21T00:43:30.892Z,44.10
2023-01-21T00:45:58.394Z,47.50
2023-01-21T00:48:25.400Z,43.70
2023-01-21T00:51:01.688Z,44.70
2023-01-21T00:53:35.253Z,43.90
2023-01-21T00:56:04.612Z,43.40
2023-01-21T00:58:32.039Z,42.80
2023-01-21T01:01:12.061Z,44.50
2023-01-21T01:03:40.203Z,43.70
2023-01-21T01:06:15.795Z,46.50
2023-01-21T01:08:43.152Z,45.20
2023-01-21T01:11:11.049Z,44.80
2023-01-21T01:13:38.299Z,42.30
2023-01-21T01:16:06.218Z,44.80
2023-01-21T01:18:35.818Z,44.60
2023-01-21T01:21:03.468Z,44.40
2023-01-21T01:23:30.780Z,44.40
2023-01-21T01:26:02.142Z,46.80
2023-01-21T01:28:29.563Z,41.60
2023-01-21T01:30:57.232Z,43.20
2023-01-21T01:33:25.696Z,43.70
2023-01-21T01:35:52.907Z,45.50
2023-01-21T01:38:27.047Z,42.10
2023-01-21T01:40:54.303Z,41.90
2023-01-21T01:43:27.422Z,47.80
2023-01-21T01:45:54.233Z,46.10
2023-01-21T01:48:28.702Z,44.40
2023-01-21T01:51:04.049Z,46.80
2023-01-21T01:53:32.691Z,44.10
2023-01-21T01:56:00.391Z,43.10
2023-01-21T01:58:28.755Z,44.40
2023-01-21T02:00:55.907Z,42.90
2023-01-21T02:03:49.017Z,41.60
2023-01-21T02:06:17.926Z,42.40
2023-01-21T02:08:46.582Z,43.50
2023-01-21T02:11:16.474Z,45.20
2023-01-21T02:13:46.537Z,41.70
2023-01-21T02:16:19.602Z,41.70
2023-01-21T02:18:58.057Z,39.20
2023-01-21T02:21:43.402Z,41.80
2023-01-21T02:24:37.699Z,38.30
2023-01-21T02:27:43.203Z,40.30
2023-01-21T02:30:22.741Z,37.40
2023-01-21T02:33:11.242Z,38.50
2023-01-21T02:35:50.028Z,35.70
2023-01-21T02:38:29.890Z,36.10
2023-01-21T02:41:32.098Z,38.60
2023-01-21T02:44:22.474Z,37.40
2023-01-21T02:46:56.475Z,36.20
2023-01-21T02:49:40.982Z,37.00
2023-01-21T02:52:08.447Z,36.50
2023-01-21T02:54:41.671Z,36.00
2023-01-21T02:57:12.009Z,36.20
2023-01-21T02:59:42.477Z,35.60
2023-01-21T03:02:38.509Z,33.50
2023-01-21T03:05:17.290Z,35.40
2023-01-21T03:07:54.294Z,36.30
2023-01-21T03:10:42.391Z,36.30
2023-01-21T03:13:49.838Z,33.90
2023-01-21T03:16:39.551Z,33.10
2023-01-21T03:19:11.584Z,34.70
2023-01-21T03:21:38.782Z,32.60
2023-01-21T03:24:06.948Z,37.60
2023-01-21T03:26:38.237Z,31.70
2023-01-21T03:29:11.564Z,32.80
2023-01-21T03:31:40.784Z,31.40
2023-01-21T03:34:11.512Z,32.90
2023-01-21T03:36:49.538Z,34.40
2023-01-21T03:39:37.385Z,33.20
2023-01-21T03:42:04.347Z,33.20
2023-01-21T03:44:31.454Z,31.10
2023-01-21T03:47:01.304Z,32.00
2023-01-21T03:49:38.551Z,33.60
2023-01-21T03:52:06.928Z,30.60
2023-01-21T03:54:33.984Z,32.80
2023-01-21T03:57:00.772Z,33.50
2023-01-21T03:59:27.818Z,34.00
2023-01-21T04:01:55.070Z,32.60
2023-01-21T04:04:22.086Z,33.90
2023-01-21T04:06:49.145Z,31.30
2023-01-21T04:09:16.385Z,34.60
2023-01-21T04:11:43.431Z,33.10
2023-01-21T04:14:10.557Z,32.70
2023-01-21T04:16:37.629Z,35.40
2023-01-21T04:19:05.314Z,32.30
2023-01-21T04:21:32.357Z,30.80
2023-01-21T04:23:59.216Z,32.70
2023-01-21T04:26:26.135Z,29.60
2023-01-21T04:28:53.513Z,30.40
2023-01-21T04:31:20.296Z,32.40
2023-01-21T04:33:47.273Z,33.80
2023-01-21T04:36:14.064Z,31.50
2023-01-21T04:38:41.274Z,30.30
2023-01-21T04:41:08.246Z,29.10
2023-01-21T04:43:35.258Z,31.40
2023-01-21T04:46:02.224Z,31.40
2023-01-21T04:48:29.453Z,30.90
2023-01-21T04:50:56.561Z,32.10
2023-01-21T04:53:23.631Z,31.70
2023-01-21T04:55:53.854Z,29.90
2023-01-21T04:58:21.359Z,30.90
2023-01-21T05:00:48.495Z,32.80
2023-01-21T05:03:15.593Z,31.40
2023-01-21T05:05:42.625Z,31.20
2023-01-21T05:08:09.780Z,30.80
2023-01-21T05:10:36.461Z,29.30
2023-01-21T05:13:03.493Z,30.80
2023-01-21T05:15:32.346Z,29.40
2023-01-21T05:18:00.471Z,30.10
2023-01-21T05:20:27.216Z,29.10
2023-01-21T05:22:54.194Z,28.10
2023-01-21T05:25:21.331Z,30.00
2023-01-21T05:27:52.248Z,29.40
2023-01-21T05:30:19.231Z,31.60
2023-01-21T05:32:50.134Z,28.80
2023-01-21T05:35:19.206Z,29.20
2023-01-21T05:37:47.834Z,31.40
2023-01-21T05:40:16.458Z,29.30
2023-01-21T05:42:44.299Z,29.60
2023-01-21T05:45:12.811Z,29.40
2023-01-21T05:47:39.705Z,26.80
2023-01-21T05:50:16.461Z,30.90
2023-01-21T05:52:44.058Z,29.40
2023-01-21T05:55:11.007Z,28.80
2023-01-21T05:57:37.998Z,29.00
2023-01-21T06:00:05.433Z,31.40
2023-01-21T06:02:32.585Z,27.80
2023-01-21T06:04:59.562Z,30.30
2023-01-21T06:07:26.725Z,31.00
2023-01-21T06:09:53.332Z,31.40
2023-01-21T06:12:20.230Z,29.90
2023-01-21T06:14:46.961Z,30.20
2023-01-21T06:17:13.747Z,30.90
2023-01-21T06:19:40.803Z,28.90
2023-01-21T06:22:07.701Z,28.10
2023-01-21T06:24:35.290Z,31.10
2023-01-21T06:27:02.588Z,30.20
2023-01-21T06:29:29.642Z,29.50
2023-01-21T06:31:56.880Z,28.20
2023-01-21T06:34:23.840Z,29.60
2023-01-21T06:36:50.995Z,27.00
2023-01-21T06:39:18.159Z,26.30
2023-01-21T06:41:45.336Z,28.30
2023-01-21T06:44:12.481Z,27.10
2023-01-21T06:46:43.343Z,26.60
2023-01-21T06:49:12.690Z,26.70
2023-01-21T06:51:39.777Z,24.60
2023-01-21T06:54:06.654Z,25.40
2023-01-21T06:56:33.627Z,24.60
2023-01-21T06:59:00.700Z,24.80
2023-01-21T07:01:27.600Z,25.20
2023-01-21T07:03:54.530Z,26.40
2023-01-21T07:06:25.532Z,25.30
2023-01-21T07:08:53.203Z,26.10
2023-01-21T07:11:20.083Z,28.10
2023-01-21T07:13:47.255Z,23.30
2023-01-21T07:16:16.588Z,27.20
2023-01-21T07:18:50.980Z,28.30
2023-01-21T07:21:18.090Z,25.30
2023-01-21T07:23:45.064Z,25.80
2023-01-21T07:26:12.086Z,24.40
2023-01-21T07:28:39.039Z,27.10
2023-01-21T07:31:06.138Z,24.90
2023-01-21T07:33:33.286Z,25.40
2023-01-21T07:36:09.079Z,23.10
2023-01-21T07:38:36.496Z,26.20
2023-01-21T07:41:03.847Z,25.80
2023-01-21T07:43:30.625Z,26.30
2023-01-21T07:46:00.234Z,24.20
2023-01-21T07:48:27.079Z,25.60
2023-01-21T07:50:58.512Z,25.20
2023-01-21T07:53:26.339Z,26.00
2023-01-21T07:55:53.346Z,29.00
2023-01-21T07:58:19.970Z,30.50
2023-01-21T08:00:46.958Z,29.00
2023-01-21T08:03:13.879Z,28.60
2023-01-21T08:05:41.408Z,28.80
2023-01-21T08:08:08.177Z,28.90
2023-01-21T08:10:35.073Z,28.20
2023-01-21T08:13:02.123Z,29.00
2023-01-21T08:15:28.990Z,26.50
2023-01-21T08:17:56.565Z,28.30
2023-01-21T08:20:23.755Z,26.40
2023-01-21T08:22:51.020Z,26.00
2023-01-21T08:25:18.610Z,28.40
2023-01-21T08:27:45.700Z,28.80
2023-01-21T08:30:13.260Z,26.50
2023-01-21T08:32:40.230Z,25.20
2023-01-21T08:35:07.653Z,26.50
2023-01-21T08:37:36.885Z,27.00
2023-01-21T08:40:03.976Z,26.90
2023-01-21T08:42:30.497Z,26.80
2023-01-21T08:44:57.486Z,25.00
2023-01-21T08:47:24.354Z,23.50
2023-01-21T08:49:50.994Z,25.50
2023-01-21T08:52:18.111Z,28.00
2023-01-21T08:54:45.154Z,26.70
2023-01-21T08:57:12.335Z,27.20
2023-01-21T08:59:39.398Z,24.60
2023-01-21T09:02:08.183Z,26.20
2023-01-21T09:04:34.895Z,25.30
2023-01-21T09:07:02.065Z,26.20
2023-01-21T09:09:29.239Z,27.90
2023-01-21T09:11:56.127Z,31.70
2023-01-21T09:14:23.038Z,26.90
2023-01-21T09:16:50.624Z,28.90
2023-01-21T09:19:17.527Z,26.60
2023-01-21T09:21:44.593Z,25.60
2023-01-21T09:24:11.465Z,25.30
2023-01-21T09:26:43.911Z,24.50
2023-01-21T09:29:11.227Z,25.30
2023-01-21T09:31:38.325Z,23.90
2023-01-21T09:34:05.762Z,22.00
2023-01-21T09:36:34.722Z,24.30
2023-01-21T09:39:01.885Z,24.60
2023-01-21T09:41:34.522Z,25.40
2023-01-21T09:44:05.702Z,24.80
2023-01-21T09:46:46.761Z,24.60
2023-01-21T09:49:22.620Z,24.40
2023-01-21T09:52:01.269Z,24.40
2023-01-21T09:54:32.459Z,23.50
2023-01-21T09:57:19.446Z,23.90
2023-01-21T10:00:24.645Z,24.70
2023-01-21T10:03:10.013Z,24.40
2023-01-21T10:05:45.903Z,22.70
2023-01-21T10:08:41.841Z,23.00
2023-01-21T10:11:24.472Z,22.90
2023-01-21T10:14:45.328Z,22.80
2023-01-21T10:17:53.241Z,21.90
2023-01-21T10:20:28.516Z,22.30
2023-01-21T10:23:14.602Z,24.50
2023-01-21T10:25:41.905Z,23.10
2023-01-21T10:28:19.905Z,20.30
2023-01-21T10:30:51.277Z,24.10
2023-01-21T10:33:23.987Z,20.00
2023-01-21T10:36:19.573Z,21.90
2023-01-21T10:39:01.726Z,23.20
2023-01-21T10:41:57.274Z,20.90
2023-01-21T10:44:47.106Z,21.50
2023-01-21T10:47:35.428Z,21.20
2023-01-21T10:50:30.360Z,21.80
2023-01-21T10:53:06.923Z,23.10
2023-01-21T10:56:09.946Z,21.70
2023-01-21T10:58:46.372Z,23.20
2023-01-21T11:01:28.638Z,22.60
2023-01-21T11:03:59.379Z,20.10
2023-01-21T11:06:29.117Z,22.40
2023-01-21T11:09:00.552Z,17.50
2023-01-21T11:11:32.815Z,19.00
2023-01-21T11:13:59.666Z,21.60
2023-01-21T11:16:53.835Z,20.00
2023-01-21T11:19:26.379Z,20.40
2023-01-21T11:22:13.007Z,19.80
2023-01-21T11:24:45.989Z,21.90
2023-01-21T11:27:31.582Z,19.80
2023-01-21T11:29:58.688Z,22.10
2023-01-21T11:32:28.696Z,20.60
2023-01-21T11:35:21.054Z,20.40
2023-01-21T11:37:47.927Z,19.50
2023-01-21T11:40:34.734Z,20.00
2023-01-21T11:43:01.420Z,21.40
2023-01-21T11:45:31.718Z,22.40
2023-01-21T11:48:00.110Z,22.70
2023-01-21T11:50:34.768Z,21.30
2023-01-21T11:53:11.650Z,23.80
2023-01-21T11:55:41.936Z,23.10
2023-01-21T11:58:26.624Z,22.40
2023-01-21T12:00:56.471Z,22.20
2023-01-21T12:03:28.786Z,21.10
2023-01-21T12:05:55.626Z,24.00
2023-01-21T12:08:35.730Z,21.70
2023-01-21T12:11:05.176Z,22.30
2023-01-21T12:13:57.977Z,21.50
2023-01-21T12:17:05.546Z,24.30
2023-01-21T12:19:35.153Z,19.20
2023-01-21T12:22:16.124Z,21.30
2023-01-21T12:24:54.937Z,18.30
2023-01-21T12:27:43.418Z,20.70
2023-01-21T12:30:41.790Z,19.30
2023-01-21T12:33:11.316Z,21.40
2023-01-21T12:35:47.888Z,20.70
2023-01-21T12:38:20.558Z,19.50
2023-01-21T12:41:00.041Z,18.70
2023-01-21T12:43:40.576Z,19.50
2023-01-21T12:46:16.847Z,17.30
2023-01-21T12:48:55.910Z,17.10
2023-01-21T12:51:28.287Z,15.50
2023-01-21T12:54:13.769Z,16.90
2023-01-21T12:56:48.148Z,16.90
2023-01-21T12:59:49.002Z,18.70
2023-01-21T13:02:32.405Z,14.40
2023-01-21T13:05:04.209Z,13.10
2023-01-21T13:07:49.845Z,14.70
2023-01-21T13:10:39.151Z,16.30
2023-01-21T13:13:18.471Z,15.10
2023-01-21T13:15:49.859Z,13.20
2023-01-21T13:18:22.622Z,16.20
2023-01-21T13:20:54.993Z,62.40
2023-01-21T13:24:12.324Z,17.70
2023-01-21T13:26:48.680Z,16.70
2023-01-21T13:29:29.231Z,17.30
2023-01-21T13:32:20.611Z,14.50
2023-01-21T13:34:58.888Z,17.70
2023-01-21T13:37:50.176Z,18.30
2023-01-21T13:40:43.782Z,16.00
2023-01-21T13:43:54.673Z,15.90
2023-01-21T13:46:42.924Z,17.60
2023-01-21T13:49:37.063Z,17.10
2023-01-21T13:52:32.155Z,19.50
2023-01-21T13:55:10.816Z,17.40
2023-01-21T13:57:37.389Z,15.70
2023-01-21T14:00:13.452Z,15.80
2023-01-21T14:02:47.950Z,14.60
2023-01-21T14:05:26.517Z,15.20
2023-01-21T14:08:06.424Z,14.60
2023-01-21T14:10:46.511Z,15.60
2023-01-21T14:13:36.434Z,24.20
2023-01-21T14:16:27.987Z,15.20
2023-01-21T14:18:57.694Z,15.80
2023-01-21T14:21:47.235Z,16.50
2023-01-21T14:24:32.239Z,16.50
2023-01-21T14:26:58.958Z,15.90
2023-01-21T14:29:46.488Z,18.10
2023-01-21T14:32:44.518Z,16.20
2023-01-21T14:35:35.523Z,18.80
2023-01-21T14:38:24.269Z,16.60
2023-01-21T14:41:02.574Z,18.10
2023-01-21T14:43:32.112Z,16.40
2023-01-21T14:46:00.989Z,17.50
2023-01-21T14:48:38.961Z,18.80
2023-01-21T14:51:05.958Z,19.10
2023-01-21T14:53:45.073Z,17.00
2023-01-21T14:56:25.497Z,18.20
2023-01-21T14:59:26.103Z,16.60
2023-01-21T15:02:03.408Z,16.70
2023-01-21T15:04:40.937Z,15.00
2023-01-21T15:07:18.123Z,17.50
2023-01-21T15:09:51.443Z,18.80
2023-01-21T15:12:23.451Z,18.40
2023-01-21T15:14:50.499Z,16.50
2023-01-21T15:17:54.457Z,16.40
2023-01-21T15:20:45.466Z,17.20
2023-01-21T15:23:30.421Z,17.20
2023-01-21T15:26:11.068Z,16.50
2023-01-21T15:28:49.327Z,17.50
2023-01-21T15:31:40.348Z,18.30
2023-01-21T15:34:21.635Z,18.00
2023-01-21T15:36:57.134Z,19.80
2023-01-21T15:39:33.493Z,19.00
2023-01-21T15:42:39.682Z,20.20
2023-01-21T15:45:32.879Z,21.40
2023-01-21T15:48:41.360Z,19.20
2023-01-21T15:51:43.333Z,19.30
2023-01-21T15:54:27.086Z,17.40
2023-01-21T15:57:28.383Z,23.50
2023-01-21T16:00:29.544Z,17.30
2023-01-21T16:03:03.814Z,20.30
2023-01-21T16:05:39.745Z,21.40
2023-01-21T16:08:16.779Z,21.60
2023-01-21T16:11:02.388Z,20.50
2023-01-21T16:13:39.167Z,21.90
2023-01-21T16:16:27.612Z,24.60
2023-01-21T16:18:59.774Z,21.60
2023-01-21T16:21:35.673Z,23.90
2023-01-21T16:24:16.985Z,22.30
2023-01-21T16:26:44.170Z,24.00
2023-01-21T16:29:13.927Z,26.00
2023-01-21T16:31:48.441Z,23.80
2023-01-21T16:34:23.999Z,26.20
2023-01-21T16:36:51.191Z,27.80
2023-01-21T16:39:19.815Z,28.50
2023-01-21T16:42:03.353Z,25.40
2023-01-21T16:44:33.290Z,27.90
2023-01-21T16:47:00.670Z,30.30
2023-01-21T16:49:27.750Z,29.10
2023-01-21T16:51:58.603Z,27.20
2023-01-21T16:54:27.789Z,27.60
2023-01-21T16:57:03.583Z,26.30
2023-01-21T16:59:40.775Z,29.00
2023-01-21T17:02:29.190Z,25.20
2023-01-21T17:04:58.140Z,24.90
2023-01-21T17:07:48.517Z,24.10
2023-01-21T17:10:15.829Z,23.50
2023-01-21T17:12:48.128Z,26.40
2023-01-21T17:15:28.719Z,26.10
2023-01-21T17:17:58.735Z,25.60
2023-01-21T17:20:35.796Z,27.10
2023-01-21T17:23:05.729Z,25.50
2023-01-21T17:25:33.497Z,25.10
2023-01-21T17:28:15.541Z,24.50
2023-01-21T17:30:42.551Z,23.30
2023-01-21T17:33:27.416Z,41.50
2023-01-21T17:36:07.126Z,22.70
2023-01-21T17:38:38.483Z,25.70
2023-01-21T17:41:08.780Z,22.40
2023-01-21T17:43:37.451Z,23.50
2023-01-21T17:46:04.411Z,22.10
2023-01-21T17:48:44.469Z,22.20
2023-01-21T17:51:17.170Z,23.00
2023-01-21T17:54:00.863Z,22.20
2023-01-21T17:56:58.997Z,22.40
2023-01-21T17:59:34.590Z,23.80
2023-01-21T18:02:02.805Z,24.00
2023-01-21T18:04:30.085Z,22.60
2023-01-21T18:06:58.341Z,23.10
2023-01-21T18:09:26.116Z,23.90
2023-01-21T18:11:55.534Z,22.40
2023-01-21T18:14:24.913Z,18.30
2023-01-21T18:16:56.080Z,20.70
2023-01-21T18:19:31.328Z,19.00
2023-01-21T18:21:58.655Z,18.20
2023-01-21T18:24:25.830Z,17.80
2023-01-21T18:26:53.349Z,18.20
2023-01-21T18:29:21.800Z,19.50
2023-01-21T18:31:52.139Z,18.20
2023-01-21T18:34:19.378Z,18.30
2023-01-21T18:36:46.592Z,17.40
2023-01-21T18:39:16.748Z,20.00
2023-01-21T18:41:44.005Z,17.80
2023-01-21T18:44:11.036Z,18.50
2023-01-21T18:46:43.224Z,15.90
2023-01-21T18:49:16.464Z,18.40
2023-01-21T18:51:44.019Z,16.50
2023-01-21T18:54:12.959Z,15.30
2023-01-21T18:56:41.418Z,15.00
2023-01-21T18:59:17.000Z,14.50
2023-01-21T19:01:44.974Z,14.50
2023-01-21T19:04:18.899Z,14.60
2023-01-21T19:06:55.399Z,21.10
2023-01-21T19:09:24.352Z,17.70
2023-01-21T19:11:52.088Z,11.70
2023-01-21T19:14:18.933Z,12.90
2023-01-21T19:16:46.453Z,12.10
2023-01-21T19:19:24.007Z,11.70
2023-01-21T19:21:50.967Z,11.30
2023-01-21T19:24:18.075Z,13.40
2023-01-21T19:26:45.034Z,10.10
2023-01-21T19:29:16.376Z,10.30
2023-01-21T19:31:43.686Z,11.30
2023-01-21T19:34:10.673Z,10.40
2023-01-21T19:36:39.264Z,8.90
2023-01-21T19:39:14.734Z,8.80
2023-01-21T19:41:41.526Z,9.20
2023-01-21T19:44:08.557Z,10.80
2023-01-21T19:46:35.647Z,8.40
2023-01-21T19:49:11.359Z,10.20
2023-01-21T19:51:38.007Z,6.70
2023-01-21T19:54:04.862Z,10.20
2023-01-21T19:56:34.373Z,7.60
2023-01-21T19:59:02.614Z,176.70
2023-01-21T20:01:29.668Z,11.80
2023-01-21T20:04:00.527Z,8.00
2023-01-21T20:06:34.444Z,7.90
2023-01-21T20:09:01.239Z,7.90
2023-01-21T20:11:28.145Z,8.10
2023-01-21T20:13:55.061Z,7.30
2023-01-21T20:16:23.927Z,7.00
2023-01-21T20:18:50.850Z,6.70
2023-01-21T20:21:17.716Z,6.90
2023-01-21T20:23:45.696Z,6.40
2023-01-21T20:26:25.726Z,6.60
2023-01-21T20:28:54.527Z,7.90
2023-01-21T20:31:21.570Z,7.00
2023-01-21T20:33:48.516Z,6.50
2023-01-21T20:36:20.147Z,6.10
2023-01-21T20:38:46.949Z,5.60
2023-01-21T20:41:14.265Z,6.20
2023-01-21T20:43:41.748Z,6.60
2023-01-21T20:46:19.944Z,6.60
2023-01-21T20:48:46.974Z,6.80
2023-01-21T20:51:14.172Z,4.70
2023-01-21T20:53:41.181Z,6.40
2023-01-21T20:56:25.212Z,6.60
2023-01-21T20:58:52.579Z,7.10
2023-01-21T21:01:21.740Z,6.60
2023-01-21T21:03:49.536Z,10.70
2023-01-21T21:06:19.304Z,6.40
2023-01-21T21:08:46.958Z,8.00
2023-01-21T21:11:15.081Z,7.50
2023-01-21T21:13:42.645Z,8.50
2023-01-21T21:16:19.030Z,6.70
2023-01-21T21:18:49.443Z,6.50
2023-01-21T21:21:17.922Z,7.00
2023-01-21T21:23:47.366Z,6.50
2023-01-21T21:26:23.977Z,7.10
2023-01-21T21:28:55.112Z,6.60
2023-01-21T21:31:22.517Z,6.70
2023-01-21T21:33:49.487Z,5.30
2023-01-21T21:36:18.469Z,50.70
2023-01-21T21:38:45.883Z,11.20
2023-01-21T21:41:36.493Z,7.20
2023-01-21T21:44:05.545Z,6.40
2023-01-21T21:46:51.280Z,6.80
2023-01-21T21:49:18.264Z,6.60
2023-01-21T21:51:45.954Z,6.00
2023-01-21T21:54:13.954Z,7.40
2023-01-21T21:56:40.647Z,8.10
2023-01-21T21:59:07.231Z,6.20
2023-01-21T22:01:36.010Z,8.30
2023-01-21T22:04:04.911Z,6.70
2023-01-21T22:06:32.771Z,13.30
2023-01-21T22:08:59.641Z,13.00
2023-01-21T22:11:27.458Z,6.80
2023-01-21T22:13:55.332Z,8.20
2023-01-21T22:16:24.934Z,7.00
2023-01-21T22:18:52.711Z,7.10
2023-01-21T22:21:22.469Z,7.10
2023-01-21T22:23:50.044Z,6.10
2023-01-21T22:26:20.058Z,8.70
2023-01-21T22:28:46.872Z,4.80
2023-01-21T22:31:19.495Z,7.50
2023-01-21T22:33:46.803Z,6.60
2023-01-21T22:36:16.558Z,7.00
2023-01-21T22:38:44.291Z,6.50
2023-01-21T22:41:13.820Z,7.10
2023-01-21T22:43:50.770Z,5.10
2023-01-21T22:46:20.736Z,5.90
2023-01-21T22:48:47.697Z,6.60
2023-01-21T22:51:16.893Z,7.30
2023-01-21T22:53:46.356Z,6.50
2023-01-21T22:56:18.424Z,6.00
2023-01-21T22:58:45.528Z,7.10
2023-01-21T23:01:36.768Z,7.20
2023-01-21T23:04:06.746Z,6.60
2023-01-21T23:06:37.720Z,8.50
2023-01-21T23:09:05.747Z,7.00
2023-01-21T23:11:35.142Z,8.30
2023-01-21T23:14:02.160Z,8.60
2023-01-21T23:16:29.145Z,9.90
2023-01-21T23:18:55.839Z,10.60
2023-01-21T23:21:25.840Z,9.70
2023-01-21T23:23:53.438Z,9.60
2023-01-21T23:26:20.923Z,10.00
2023-01-21T23:28:48.029Z,10.60
2023-01-21T23:31:18.073Z,8.70
2023-01-21T23:33:48.974Z,9.20
2023-01-21T23:36:15.914Z,9.40
2023-01-21T23:38:43.585Z,10.70
2023-01-21T23:41:12.519Z,9.80
2023-01-21T23:43:39.987Z,8.00
2023-01-21T23:46:08.581Z,9.60
2023-01-21T23:48:35.526Z,10.10
2023-01-21T23:51:04.063Z,9.90
2023-01-21T23:53:32.106Z,10.60
2023-01-21T23:56:14.007Z,10.90
2023-01-21T23:58:41.290Z,11.30
